createdAt,value
2018-05-08T00:00:13.990Z,966.05
2018-05-08T00:01:13.946Z,966.04
2018-05-08T00:02:13.890Z,966.04
2018-05-08T00:03:13.909Z,965.98
2018-05-08T00:04:13.803Z,966.01
2018-05-08T00:05:13.753Z,966.01
2018-05-08T00:06:13.712Z,965.98
2018-05-08T00:07:13.676Z,965.93
2018-05-08T00:08:13.659Z,966.05
2018-05-08T00:09:13.596Z,965.97
2018-05-08T00:10:13.587Z,965.96
2018-05-08T00:11:13.538Z,965.94
2018-05-08T00:12:13.446Z,965.94
2018-05-08T00:13:13.397Z,965.94
2018-05-08T00:14:13.362Z,965.99
2018-05-08T00:15:13.309Z,965.92
2018-05-08T00:16:13.302Z,965.93
2018-05-08T00:17:13.218Z,965.87
2018-05-08T00:18:13.173Z,965.89
2018-05-08T00:19:13.125Z,965.85
2018-05-08T00:20:13.125Z,965.83
2018-05-08T00:21:13.039Z,965.80
2018-05-08T00:22:13.025Z,965.81
2018-05-08T00:23:12.946Z,965.81
2018-05-08T00:24:12.899Z,965.79
2018-05-08T00:25:12.853Z,965.76
2018-05-08T00:26:12.846Z,965.74
2018-05-08T00:27:12.809Z,965.74
2018-05-08T00:28:12.726Z,965.71
2018-05-08T00:29:12.673Z,965.69
2018-05-08T00:30:12.627Z,965.71
2018-05-08T00:31:12.584Z,965.73
2018-05-08T00:32:12.589Z,965.70
2018-05-08T00:33:12.501Z,965.65
2018-05-08T00:34:12.464Z,965.66
2018-05-08T00:35:12.398Z,965.65
2018-05-08T00:36:12.360Z,965.59
2018-05-08T00:37:12.349Z,965.64
2018-05-08T00:38:12.270Z,965.57
2018-05-08T00:39:12.218Z,965.62
2018-05-08T00:40:12.177Z,965.51
2018-05-08T00:41:12.138Z,965.56
2018-05-08T00:42:12.118Z,965.55
2018-05-08T00:43:12.039Z,965.51
2018-05-08T00:44:12.044Z,965.51
2018-05-08T00:45:11.945Z,965.48
2018-05-08T00:46:11.908Z,965.52
2018-05-08T00:47:11.975Z,965.50
2018-05-08T00:48:11.831Z,965.48
2018-05-08T00:49:11.814Z,965.54
2018-05-08T00:50:11.727Z,965.47
2018-05-08T00:51:11.738Z,965.48
2018-05-08T00:52:11.632Z,965.50
2018-05-08T00:53:11.581Z,965.46
2018-05-08T00:54:11.572Z,965.48
2018-05-08T00:55:11.493Z,965.45
2018-05-08T00:56:11.451Z,965.45
2018-05-08T00:57:11.412Z,965.46
2018-05-08T00:58:11.358Z,965.46
2018-05-08T00:59:11.356Z,965.40
2018-05-08T01:00:11.313Z,965.47
2018-05-08T01:01:11.220Z,965.43
2018-05-08T01:02:11.174Z,965.43
2018-05-08T01:03:11.133Z,965.42
2018-05-08T01:04:11.085Z,965.40
2018-05-08T01:05:11.086Z,965.40
2018-05-08T01:06:10.993Z,965.44
2018-05-08T01:07:10.946Z,965.32
2018-05-08T01:08:10.900Z,965.37
2018-05-08T01:09:10.853Z,965.27
2018-05-08T01:10:10.845Z,965.33
2018-05-08T01:11:10.766Z,965.31
2018-05-08T01:12:10.716Z,965.31
2018-05-08T01:13:10.679Z,965.29
2018-05-08T01:14:10.631Z,965.32
2018-05-08T01:15:10.685Z,965.28
2018-05-08T01:16:10.549Z,965.26
2018-05-08T01:17:10.531Z,965.29
2018-05-08T01:18:10.445Z,965.27
2018-05-08T01:19:10.404Z,965.28
2018-05-08T01:20:10.409Z,965.28
2018-05-08T01:21:10.316Z,965.26
2018-05-08T01:22:10.266Z,965.26
2018-05-08T01:23:10.236Z,965.23
2018-05-08T01:24:10.171Z,965.22
2018-05-08T01:25:10.172Z,965.28
2018-05-08T01:26:10.091Z,965.25
2018-05-08T01:27:10.034Z,965.30
2018-05-08T01:28:10.023Z,965.28
2018-05-08T01:29:09.953Z,965.18
2018-05-08T01:30:09.898Z,965.20
2018-05-08T01:31:09.853Z,965.26
2018-05-08T01:32:09.815Z,965.23
2018-05-08T01:33:09.798Z,965.15
2018-05-08T01:34:09.712Z,965.12
2018-05-08T01:35:09.687Z,965.16
2018-05-08T01:36:09.624Z,965.14
2018-05-08T01:37:09.613Z,965.14
2018-05-08T01:38:09.538Z,965.11
2018-05-08T01:39:09.492Z,965.07
2018-05-08T01:40:09.481Z,965.07
2018-05-08T01:41:09.403Z,965.08
2018-05-08T01:42:09.350Z,965.03
2018-05-08T01:43:09.312Z,965.03
2018-05-08T01:44:09.296Z,965.09
2018-05-08T01:45:09.220Z,965.02
2018-05-08T01:46:09.177Z,965.08
2018-05-08T01:47:09.131Z,965.06
2018-05-08T01:48:09.076Z,965.05
2018-05-08T01:49:09.067Z,965.08
2018-05-08T01:50:08.987Z,964.97
2018-05-08T01:51:08.945Z,965.03
2018-05-08T01:52:08.896Z,965.02
2018-05-08T01:53:08.953Z,965.00
2018-05-08T01:54:08.855Z,964.99
2018-05-08T01:55:08.769Z,964.98
2018-05-08T01:56:08.718Z,964.98
2018-05-08T01:57:08.672Z,965.04
2018-05-08T01:58:08.624Z,965.02
2018-05-08T01:59:08.633Z,964.98
2018-05-08T02:00:08.530Z,964.93
2018-05-08T02:01:08.486Z,964.92
2018-05-08T02:02:08.441Z,964.95
2018-05-08T02:03:08.397Z,964.92
2018-05-08T02:04:08.409Z,964.97
2018-05-08T02:05:08.312Z,964.89
2018-05-08T02:06:08.258Z,964.91
2018-05-08T02:07:08.214Z,964.86
2018-05-08T02:08:08.167Z,964.87
2018-05-08T02:09:08.166Z,964.84
2018-05-08T02:10:08.072Z,964.93
2018-05-08T02:11:08.035Z,964.92
2018-05-08T02:12:07.985Z,964.90
2018-05-08T02:13:07.935Z,964.84
2018-05-08T02:14:07.937Z,964.85
2018-05-08T02:15:08.905Z,964.94
2018-05-08T02:16:07.801Z,964.89
2018-05-08T02:17:07.756Z,964.91
2018-05-08T02:18:07.711Z,964.91
2018-05-08T02:19:07.702Z,964.91
2018-05-08T02:20:07.658Z,964.89
2018-05-08T02:21:07.576Z,964.94
2018-05-08T02:22:07.529Z,964.96
2018-05-08T02:23:07.486Z,964.93
2018-05-08T02:24:07.436Z,964.92
2018-05-08T02:25:07.438Z,964.91
2018-05-08T02:26:07.345Z,964.86
2018-05-08T02:27:07.300Z,964.91
2018-05-08T02:28:07.259Z,964.89
2018-05-08T02:29:07.212Z,964.86
2018-05-08T02:30:07.210Z,964.95
2018-05-08T02:31:07.117Z,964.93
2018-05-08T02:32:07.081Z,964.93
2018-05-08T02:33:07.020Z,964.97
2018-05-08T02:34:06.988Z,964.93
2018-05-08T02:35:06.975Z,964.91
2018-05-08T02:36:06.890Z,964.92
2018-05-08T02:37:06.893Z,964.93
2018-05-08T02:38:06.836Z,964.95
2018-05-08T02:39:11.617Z,964.94
2018-05-08T02:40:06.744Z,964.93
2018-05-08T02:41:06.655Z,964.96
2018-05-08T02:42:06.618Z,964.92
2018-05-08T02:43:06.596Z,964.96
2018-05-08T02:44:06.552Z,964.91
2018-05-08T02:45:06.477Z,964.96
2018-05-08T02:46:06.445Z,964.97
2018-05-08T02:47:06.384Z,964.92
2018-05-08T02:48:06.338Z,964.93
2018-05-08T02:49:06.323Z,964.92
2018-05-08T02:50:06.286Z,964.92
2018-05-08T02:51:06.198Z,964.91
2018-05-08T02:52:06.159Z,964.92
2018-05-08T02:53:06.113Z,964.94
2018-05-08T02:54:06.093Z,964.92
2018-05-08T02:55:06.062Z,964.90
2018-05-08T02:56:05.964Z,964.89
2018-05-08T02:57:05.920Z,964.84
2018-05-08T02:58:05.870Z,964.82
2018-05-08T02:59:05.865Z,964.87
2018-05-08T03:00:05.822Z,964.86
2018-05-08T03:01:05.746Z,964.81
2018-05-08T03:02:05.689Z,964.78
2018-05-08T03:03:05.648Z,964.76
2018-05-08T03:04:05.645Z,964.78
2018-05-08T03:05:05.550Z,964.83
2018-05-08T03:06:05.510Z,964.78
2018-05-08T03:07:05.460Z,964.74
2018-05-08T03:08:05.420Z,964.79
2018-05-08T03:09:05.400Z,964.75
2018-05-08T03:10:05.323Z,964.76
2018-05-08T03:11:05.278Z,964.77
2018-05-08T03:12:05.236Z,964.84
2018-05-08T03:13:05.224Z,964.80
2018-05-08T03:14:05.139Z,964.74
2018-05-08T03:15:05.089Z,964.77
2018-05-08T03:16:05.043Z,964.82
2018-05-08T03:17:04.995Z,964.74
2018-05-08T03:18:04.990Z,964.76
2018-05-08T03:19:04.965Z,964.79
2018-05-08T03:20:04.858Z,964.79
2018-05-08T03:21:04.811Z,964.74
2018-05-08T03:22:04.769Z,964.73
2018-05-08T03:23:04.759Z,964.71
2018-05-08T03:24:04.689Z,964.76
2018-05-08T03:25:04.634Z,964.73
2018-05-08T03:26:04.583Z,964.67
2018-05-08T03:27:04.577Z,964.71
2018-05-08T03:28:04.555Z,964.72
2018-05-08T03:29:04.436Z,964.70
2018-05-08T03:30:04.409Z,964.73
2018-05-08T03:31:04.400Z,964.72
2018-05-08T03:32:04.338Z,964.75
2018-05-08T03:33:04.266Z,964.72
2018-05-08T03:34:04.210Z,964.74
2018-05-08T03:35:04.161Z,964.73
2018-05-08T03:36:04.158Z,964.66
2018-05-08T03:37:04.070Z,964.72
2018-05-08T03:38:04.022Z,964.70
2018-05-08T03:39:04.010Z,964.68
2018-05-08T03:40:03.968Z,964.69
2018-05-08T03:41:03.888Z,964.71
2018-05-08T03:42:03.834Z,964.73
2018-05-08T03:43:03.839Z,964.71
2018-05-08T03:44:03.740Z,964.69
2018-05-08T03:45:03.698Z,964.66
2018-05-08T03:46:03.653Z,964.68
2018-05-08T03:47:03.614Z,964.69
2018-05-08T03:48:03.592Z,964.66
2018-05-08T03:49:03.517Z,964.62
2018-05-08T03:50:03.464Z,964.66
2018-05-08T03:51:03.452Z,964.62
2018-05-08T03:52:03.388Z,964.64
2018-05-08T03:53:03.323Z,964.63
2018-05-08T03:54:03.279Z,964.61
2018-05-08T03:55:03.268Z,964.64
2018-05-08T03:56:03.185Z,964.64
2018-05-08T03:57:03.139Z,964.62
2018-05-08T03:58:03.088Z,964.63
2018-05-08T03:59:03.081Z,964.63
2018-05-08T04:00:02.996Z,964.67
2018-05-08T04:01:02.996Z,964.61
2018-05-08T04:02:02.911Z,964.66
2018-05-08T04:03:02.867Z,964.65
2018-05-08T04:04:02.814Z,964.68
2018-05-08T04:05:02.772Z,964.66
2018-05-08T04:06:02.754Z,964.66
2018-05-08T04:07:02.674Z,964.64
2018-05-08T04:08:02.661Z,964.64
2018-05-08T04:09:02.590Z,964.65
2018-05-08T04:10:02.531Z,964.64
2018-05-08T04:11:02.498Z,964.61
2018-05-08T04:12:02.480Z,964.61
2018-05-08T04:13:02.400Z,964.61
2018-05-08T04:14:02.344Z,964.61
2018-05-08T04:15:02.413Z,964.57
2018-05-08T04:16:02.259Z,964.60
2018-05-08T04:17:02.248Z,964.54
2018-05-08T04:18:02.162Z,964.55
2018-05-08T04:19:02.123Z,964.54
2018-05-08T04:20:02.092Z,964.51
2018-05-08T04:21:02.053Z,964.54
2018-05-08T04:22:02.012Z,964.59
2018-05-08T04:23:01.938Z,964.60
2018-05-08T04:24:01.887Z,964.56
2018-05-08T04:25:01.837Z,964.56
2018-05-08T04:26:01.828Z,964.55
2018-05-08T04:27:01.748Z,964.54
2018-05-08T04:28:01.691Z,964.59
2018-05-08T04:29:01.678Z,964.58
2018-05-08T04:30:01.602Z,964.58
2018-05-08T04:31:01.596Z,964.58
2018-05-08T04:32:01.512Z,964.58
2018-05-08T04:33:01.465Z,964.58
2018-05-08T04:34:01.433Z,964.64
2018-05-08T04:35:01.415Z,964.54
2018-05-08T04:36:01.324Z,964.60
2018-05-08T04:37:01.276Z,964.58
2018-05-08T04:38:01.233Z,964.58
2018-05-08T04:39:01.186Z,964.55
2018-05-08T04:40:01.182Z,964.57
2018-05-08T04:41:01.122Z,964.56
2018-05-08T04:42:01.052Z,964.55
2018-05-08T04:43:01.000Z,964.57
2018-05-08T04:44:00.989Z,964.59
2018-05-08T04:45:00.907Z,964.53
2018-05-08T04:46:00.863Z,964.51
2018-05-08T04:47:00.814Z,964.53
2018-05-08T04:48:00.820Z,964.49
2018-05-08T04:49:00.723Z,964.50
2018-05-08T04:50:00.764Z,964.51
2018-05-08T04:51:00.627Z,964.46
2018-05-08T04:52:00.581Z,964.48
2018-05-08T04:53:00.594Z,964.49
2018-05-08T04:54:00.490Z,964.46
2018-05-08T04:55:00.446Z,964.43
2018-05-08T04:56:00.399Z,964.46
2018-05-08T04:57:00.357Z,964.40
2018-05-08T04:58:00.342Z,964.38
2018-05-08T04:59:00.258Z,964.38
2018-05-08T05:00:00.265Z,964.35
2018-05-08T05:01:00.174Z,964.36
2018-05-08T05:02:00.154Z,964.32
2018-05-08T05:03:00.088Z,964.37
2018-05-08T05:04:00.029Z,964.36
2018-05-08T05:04:59.980Z,964.40
2018-05-08T05:05:59.947Z,964.39
2018-05-08T05:06:59.998Z,964.36
2018-05-08T05:07:59.877Z,964.42
2018-05-08T05:08:59.795Z,964.48
2018-05-08T05:09:59.747Z,964.49
2018-05-08T05:10:59.752Z,964.39
2018-05-08T05:11:59.654Z,964.38
2018-05-08T05:12:59.615Z,964.41
2018-05-08T05:13:59.576Z,964.42
2018-05-08T05:14:59.555Z,964.38
2018-05-08T05:15:59.471Z,964.42
2018-05-08T05:16:59.425Z,964.43
2018-05-08T05:17:59.378Z,964.47
2018-05-08T05:18:59.339Z,964.40
2018-05-08T05:19:59.318Z,964.41
2018-05-08T05:20:59.241Z,964.44
2018-05-08T05:21:59.197Z,964.46
2018-05-08T05:22:59.174Z,964.42
2018-05-08T05:23:59.106Z,964.45
2018-05-08T05:24:59.114Z,964.47
2018-05-08T05:25:59.015Z,964.40
2018-05-08T05:26:58.962Z,964.46
2018-05-08T05:27:58.934Z,964.48
2018-05-08T05:28:58.882Z,964.48
2018-05-08T05:29:58.865Z,964.38
2018-05-08T05:30:58.776Z,964.42
2018-05-08T05:31:58.769Z,964.41
2018-05-08T05:32:58.695Z,964.40
2018-05-08T05:33:58.649Z,964.40
2018-05-08T05:34:58.595Z,964.39
2018-05-08T05:35:58.590Z,964.38
2018-05-08T05:36:58.503Z,964.35
2018-05-08T05:37:58.499Z,964.35
2018-05-08T05:38:58.409Z,964.35
2018-05-08T05:39:58.422Z,964.35
2018-05-08T05:40:58.321Z,964.44
2018-05-08T05:41:58.280Z,964.37
2018-05-08T05:42:58.261Z,964.30
2018-05-08T05:43:58.212Z,964.34
2018-05-08T05:44:58.135Z,964.35
2018-05-08T05:45:58.087Z,964.34
2018-05-08T05:48:32.617Z,964.30
2018-05-08T05:49:32.529Z,964.26
2018-05-08T05:50:32.469Z,964.30
2018-05-08T05:51:32.453Z,964.32
2018-05-08T05:52:32.385Z,964.31
2018-05-08T05:53:32.384Z,964.38
2018-05-08T05:54:32.293Z,964.37
2018-05-08T05:55:32.255Z,964.34
2018-05-08T05:56:32.800Z,964.36
2018-05-08T05:57:32.151Z,964.48
2018-05-08T05:58:32.137Z,964.37
2018-05-08T05:59:32.058Z,964.52
2018-05-08T06:00:32.055Z,964.39
2018-05-08T06:01:32.019Z,964.43
2018-05-08T06:02:31.919Z,964.38
2018-05-08T06:03:31.873Z,964.43
2018-05-08T06:04:31.836Z,964.36
2018-05-08T06:05:31.824Z,964.36
2018-05-08T06:06:31.774Z,964.37
2018-05-08T06:07:31.750Z,964.36
2018-05-08T06:08:31.641Z,964.38
2018-05-08T06:09:31.600Z,964.26
2018-05-08T06:10:31.556Z,964.28
2018-05-08T06:11:31.622Z,964.27
2018-05-08T06:12:31.467Z,964.29
2018-05-08T06:13:31.466Z,964.25
2018-05-08T06:14:31.368Z,964.24
2018-05-08T06:15:31.359Z,964.27
2018-05-08T06:16:31.308Z,964.29
2018-05-08T06:17:31.229Z,964.21
2018-05-08T06:18:31.184Z,964.29
2018-05-08T06:19:31.141Z,964.24
2018-05-08T06:20:31.100Z,964.21
2018-05-08T06:21:31.083Z,964.20
2018-05-08T06:22:31.003Z,964.22
2018-05-08T06:23:30.957Z,964.18
2018-05-08T06:24:30.952Z,964.22
2018-05-08T06:25:30.924Z,964.24
2018-05-08T06:26:30.909Z,964.22
2018-05-08T06:27:30.774Z,964.20
2018-05-08T06:28:30.811Z,964.19
2018-05-08T06:29:30.791Z,964.13
2018-05-08T06:30:30.634Z,964.12
2018-05-08T06:31:30.595Z,964.12
2018-05-08T06:32:30.547Z,964.11
2018-05-08T06:33:30.505Z,964.12
2018-05-08T06:34:30.491Z,964.15
2018-05-08T06:35:30.409Z,964.17
2018-05-08T06:36:30.390Z,964.13
2018-05-08T06:37:30.352Z,964.19
2018-05-08T06:38:30.318Z,964.18
2018-05-08T06:39:30.267Z,964.24
2018-05-08T06:40:30.192Z,964.17
2018-05-08T06:41:30.141Z,964.20
2018-05-08T06:42:30.101Z,964.18
2018-05-08T06:43:30.077Z,964.19
2018-05-08T06:44:30.004Z,964.25
2018-05-08T06:45:30.013Z,964.24
2018-05-08T06:46:29.919Z,964.20
2018-05-08T06:47:29.865Z,964.16
2018-05-08T06:48:29.918Z,964.19
2018-05-08T06:49:29.777Z,964.13
2018-05-08T06:50:29.731Z,964.20
2018-05-08T06:51:29.689Z,964.18
2018-05-08T06:52:29.643Z,964.16
2018-05-08T06:53:29.640Z,964.14
2018-05-08T06:54:29.548Z,964.14
2018-05-08T06:55:29.503Z,964.14
2018-05-08T06:56:29.462Z,964.11
2018-05-08T06:57:29.414Z,964.13
2018-05-08T06:58:29.398Z,964.12
2018-05-08T06:59:29.322Z,964.11
2018-05-08T07:00:29.280Z,964.14
2018-05-08T07:01:29.269Z,964.12
2018-05-08T07:02:29.231Z,964.15
2018-05-08T07:03:29.143Z,964.19
2018-05-08T07:04:29.098Z,964.15
2018-05-08T07:05:29.054Z,964.15
2018-05-08T07:06:29.006Z,964.20
2018-05-08T07:07:29.004Z,964.19
2018-05-08T07:08:28.922Z,964.23
2018-05-08T07:09:28.873Z,964.20
2018-05-08T07:10:28.828Z,964.29
2018-05-08T07:11:28.827Z,964.20
2018-05-08T07:12:28.744Z,964.18
2018-05-08T07:13:28.695Z,964.23
2018-05-08T07:14:28.655Z,964.22
2018-05-08T07:15:28.605Z,964.22
2018-05-08T07:16:28.611Z,964.19
2018-05-08T07:17:28.519Z,964.20
2018-05-08T07:18:28.472Z,964.12
2018-05-08T07:19:28.427Z,964.11
2018-05-08T07:20:28.382Z,964.14
2018-05-08T07:21:28.383Z,964.15
2018-05-08T07:22:28.294Z,964.16
2018-05-08T07:23:28.247Z,964.16
2018-05-08T07:24:28.206Z,964.12
2018-05-08T07:25:28.163Z,964.16
2018-05-08T07:26:28.150Z,964.17
2018-05-08T07:27:28.067Z,964.22
2018-05-08T07:28:28.027Z,964.18
2018-05-08T07:29:27.981Z,964.18
2018-05-08T07:30:27.942Z,964.28
2018-05-08T07:31:27.928Z,964.26
2018-05-08T07:32:27.850Z,964.22
2018-05-08T07:33:27.798Z,964.24
2018-05-08T07:34:27.756Z,964.16
2018-05-08T07:35:27.713Z,964.17
2018-05-08T07:36:27.705Z,964.21
2018-05-08T07:37:27.647Z,964.21
2018-05-08T07:38:27.579Z,964.18
2018-05-08T07:39:27.532Z,964.19
2018-05-08T07:40:27.492Z,964.19
2018-05-08T07:41:27.443Z,964.21
2018-05-08T07:42:27.434Z,964.15
2018-05-08T07:43:27.382Z,964.25
2018-05-08T07:44:27.348Z,964.17
2018-05-08T07:45:27.369Z,964.20
2018-05-08T07:46:27.227Z,964.20
2018-05-08T07:47:27.176Z,964.22
2018-05-08T07:48:27.138Z,964.17
2018-05-08T07:49:27.090Z,964.19
2018-05-08T07:50:27.081Z,964.20
2018-05-08T07:51:26.998Z,964.22
2018-05-08T07:52:26.995Z,964.17
2018-05-08T07:53:26.920Z,964.16
2018-05-08T07:54:26.865Z,964.24
2018-05-08T07:55:26.825Z,964.21
2018-05-08T07:56:26.777Z,964.25
2018-05-08T07:57:26.771Z,964.24
2018-05-08T07:58:26.692Z,964.24
2018-05-08T07:59:26.668Z,964.21
2018-05-08T08:00:26.610Z,964.25
2018-05-08T08:01:26.567Z,964.27
2018-05-08T08:02:26.566Z,964.28
2018-05-08T08:03:26.643Z,964.28
2018-05-08T08:04:26.429Z,964.24
2018-05-08T08:05:26.395Z,964.24
2018-05-08T08:06:26.347Z,964.28
2018-05-08T08:07:26.331Z,964.27
2018-05-08T08:08:26.254Z,964.29
2018-05-08T08:09:26.209Z,964.24
2018-05-08T08:10:26.170Z,964.26
2018-05-08T08:11:26.127Z,964.22
2018-05-08T08:12:26.202Z,964.21
2018-05-08T08:13:26.037Z,964.24
2018-05-08T08:14:26.026Z,964.24
2018-05-08T08:15:25.953Z,964.25
2018-05-08T08:16:25.905Z,964.26
2018-05-08T08:17:25.883Z,964.26
2018-05-08T08:18:25.853Z,964.25
2018-05-08T08:19:25.781Z,964.22
2018-05-08T08:20:25.738Z,964.24
2018-05-08T08:21:25.695Z,964.24
2018-05-08T08:22:25.650Z,964.23
2018-05-08T08:23:25.631Z,964.23
2018-05-08T08:24:25.565Z,964.25
2018-05-08T08:25:25.521Z,964.22
2018-05-08T08:26:25.481Z,964.25
2018-05-08T08:27:25.435Z,964.25
2018-05-08T08:28:25.423Z,964.21
2018-05-08T08:29:25.439Z,964.20
2018-05-08T08:30:25.312Z,964.23
2018-05-08T08:31:25.265Z,964.23
2018-05-08T08:32:25.222Z,964.29
2018-05-08T08:33:25.221Z,964.27
2018-05-08T08:34:25.140Z,964.26
2018-05-08T08:35:25.096Z,964.27
2018-05-08T08:36:25.059Z,964.23
2018-05-08T08:37:25.016Z,964.21
2018-05-08T08:38:25.006Z,964.30
2018-05-08T08:39:24.931Z,964.37
2018-05-08T08:40:24.901Z,964.37
2018-05-08T08:41:24.855Z,964.37
2018-05-08T08:42:24.815Z,964.34
2018-05-08T08:43:24.806Z,964.44
2018-05-08T08:44:24.732Z,964.41
2018-05-08T08:45:24.685Z,964.44
2018-05-08T08:46:24.692Z,964.41
2018-05-08T08:47:24.601Z,964.39
2018-05-08T08:48:24.605Z,964.41
2018-05-08T08:49:24.535Z,964.39
2018-05-08T08:50:24.481Z,964.32
2018-05-08T08:51:24.456Z,964.29
2018-05-08T08:52:24.457Z,964.19
2018-05-08T08:53:24.393Z,964.17
2018-05-08T08:54:24.322Z,964.15
2018-05-08T08:55:24.286Z,964.20
2018-05-08T08:56:24.257Z,964.21
2018-05-08T08:57:24.199Z,964.13
2018-05-08T08:58:24.204Z,964.14
2018-05-08T08:59:24.120Z,964.12
2018-05-08T09:00:24.120Z,964.09
2018-05-08T09:01:24.040Z,964.09
2018-05-08T09:02:23.997Z,964.11
2018-05-08T09:03:23.957Z,964.09
2018-05-08T09:04:23.972Z,964.08
2018-05-08T09:05:23.913Z,964.07
2018-05-08T09:06:23.846Z,964.02
2018-05-08T09:07:23.803Z,964.09
2018-05-08T09:08:23.761Z,964.01
2018-05-08T09:09:23.724Z,964.04
2018-05-08T09:10:23.798Z,964.04
2018-05-08T09:11:23.641Z,964.00
2018-05-08T09:12:23.603Z,963.95
2018-05-08T09:13:23.605Z,963.97
2018-05-08T09:14:23.528Z,963.96
2018-05-08T09:15:23.539Z,963.96
2018-05-08T09:16:23.447Z,964.00
2018-05-08T09:17:23.460Z,963.97
2018-05-08T09:18:23.369Z,963.97
2018-05-08T09:19:23.333Z,963.99
2018-05-08T09:20:23.322Z,963.96
2018-05-08T09:21:23.248Z,963.98
2018-05-08T09:22:23.272Z,963.85
2018-05-08T09:23:23.167Z,963.91
2018-05-08T09:24:23.125Z,963.90
2018-05-08T09:25:23.088Z,963.88
2018-05-08T09:26:23.099Z,963.92
2018-05-08T09:27:23.015Z,963.96
2018-05-08T09:28:22.971Z,963.93
2018-05-08T09:29:22.929Z,963.90
2018-05-08T09:30:22.906Z,963.82
2018-05-08T09:31:22.887Z,963.80
2018-05-08T09:32:22.809Z,963.82
2018-05-08T09:33:22.796Z,963.86
2018-05-08T09:34:22.725Z,963.83
2018-05-08T09:35:22.700Z,963.82
2018-05-08T09:36:22.681Z,963.92
2018-05-08T09:37:22.625Z,963.86
2018-05-08T09:38:22.580Z,963.74
2018-05-08T09:39:22.529Z,963.83
2018-05-08T09:40:22.486Z,963.84
2018-05-08T09:41:22.478Z,963.83
2018-05-08T09:42:22.459Z,963.86
2018-05-08T09:43:22.371Z,963.83
2018-05-08T09:44:22.331Z,963.81
2018-05-08T09:45:22.288Z,963.83
2018-05-08T09:46:22.247Z,963.75
2018-05-08T09:47:22.340Z,963.82
2018-05-08T09:48:22.178Z,963.80
2018-05-08T09:49:22.130Z,963.91
2018-05-08T09:50:22.088Z,963.86
2018-05-08T09:51:22.055Z,963.78
2018-05-08T09:52:22.058Z,963.73
2018-05-08T09:53:21.965Z,963.76
2018-05-08T09:54:21.919Z,963.82
2018-05-08T09:55:21.902Z,963.93
2018-05-08T09:56:21.847Z,963.79
2018-05-08T09:57:21.835Z,963.75
2018-05-08T09:58:21.759Z,963.88
2018-05-08T09:59:21.738Z,963.72
2018-05-08T10:00:21.687Z,963.66
2018-05-08T10:01:21.655Z,963.76
2018-05-08T10:02:21.633Z,963.60
2018-05-08T10:03:21.611Z,963.60
2018-05-08T10:04:21.522Z,963.66
2018-05-08T10:05:21.502Z,963.57
2018-05-08T10:06:21.441Z,963.57
2018-05-08T10:07:21.414Z,963.58
2018-05-08T10:08:21.398Z,963.60
2018-05-08T10:09:21.326Z,963.57
2018-05-08T10:10:21.296Z,963.57
2018-05-08T10:11:21.244Z,963.60
2018-05-08T10:12:21.243Z,963.55
2018-05-08T10:13:21.169Z,963.64
2018-05-08T10:14:21.124Z,963.58
2018-05-08T10:15:21.083Z,963.55
2018-05-08T10:16:21.051Z,963.54
2018-05-08T10:17:21.043Z,963.49
2018-05-08T10:18:20.969Z,963.46
2018-05-08T10:19:20.924Z,963.45
2018-05-08T10:20:20.885Z,963.45
2018-05-08T10:21:20.845Z,963.58
2018-05-08T10:22:20.836Z,963.47
2018-05-08T10:23:20.768Z,963.45
2018-05-08T10:24:20.725Z,963.39
2018-05-08T10:25:20.685Z,963.45
2018-05-08T10:26:20.665Z,963.48
2018-05-08T10:27:20.645Z,963.40
2018-05-08T10:28:20.569Z,963.41
2018-05-08T10:29:20.529Z,963.35
2018-05-08T10:30:20.484Z,963.35
2018-05-08T10:31:20.447Z,963.33
2018-05-08T10:32:20.445Z,963.32
2018-05-08T10:33:20.442Z,963.29
2018-05-08T10:34:20.359Z,963.29
2018-05-08T10:35:20.287Z,963.34
2018-05-08T10:36:20.246Z,963.28
2018-05-08T10:37:20.208Z,963.28
2018-05-08T10:38:20.175Z,963.28
2018-05-08T10:39:20.162Z,963.29
2018-05-08T10:40:20.132Z,963.27
2018-05-08T10:41:20.056Z,963.24
2018-05-08T10:42:20.010Z,963.22
2018-05-08T10:43:19.977Z,963.20
2018-05-08T10:44:19.936Z,963.23
2018-05-08T10:45:19.943Z,963.22
2018-05-08T10:46:19.851Z,963.26
2018-05-08T10:47:19.831Z,963.22
2018-05-08T10:48:19.775Z,963.16
2018-05-08T10:49:19.735Z,963.17
2018-05-08T10:50:19.744Z,963.16
2018-05-08T10:51:19.696Z,963.15
2018-05-08T10:52:19.621Z,963.13
2018-05-08T10:53:19.584Z,963.19
2018-05-08T10:54:19.544Z,963.19
2018-05-08T10:55:19.505Z,963.19
2018-05-08T10:56:19.499Z,963.26
2018-05-08T10:57:19.431Z,963.07
2018-05-08T10:58:19.424Z,963.08
2018-05-08T10:59:19.357Z,963.10
2018-05-08T11:00:19.332Z,963.06
2018-05-08T11:01:19.306Z,962.99
2018-05-08T11:02:19.239Z,963.04
2018-05-08T11:03:19.210Z,963.10
2018-05-08T11:04:19.193Z,963.05
2018-05-08T11:05:19.128Z,963.06
2018-05-08T11:06:19.084Z,962.99
2018-05-08T11:07:19.048Z,962.94
2018-05-08T11:08:19.042Z,962.93
2018-05-08T11:09:18.975Z,962.90
2018-05-08T11:10:18.933Z,962.84
2018-05-08T11:11:18.906Z,962.89
2018-05-08T11:12:18.863Z,962.93
2018-05-08T11:13:18.874Z,962.91
2018-05-08T11:14:18.779Z,962.90
2018-05-08T11:15:18.751Z,962.92
2018-05-08T11:16:18.708Z,962.92
2018-05-08T11:17:18.666Z,962.92
2018-05-08T11:18:18.667Z,962.84
2018-05-08T11:19:18.630Z,962.88
2018-05-08T11:20:18.562Z,962.83
2018-05-08T11:21:18.547Z,962.80
2018-05-08T11:22:18.527Z,962.77
2018-05-08T11:23:18.445Z,962.86
2018-05-08T11:24:18.402Z,962.92
2018-05-08T11:25:18.364Z,962.76
2018-05-08T11:26:18.365Z,962.75
2018-05-08T11:27:18.285Z,962.69
2018-05-08T11:28:18.255Z,962.76
2018-05-08T11:29:18.212Z,962.74
2018-05-08T11:30:18.173Z,962.62
2018-05-08T11:31:18.169Z,962.67
2018-05-08T11:32:18.138Z,962.59
2018-05-08T11:33:18.061Z,962.68
2018-05-08T11:34:18.020Z,962.69
2018-05-08T11:35:17.981Z,962.66
2018-05-08T11:36:17.950Z,962.61
2018-05-08T11:37:17.945Z,962.60
2018-05-08T11:38:17.875Z,962.63
2018-05-08T11:39:17.921Z,962.61
2018-05-08T11:40:17.800Z,962.59
2018-05-08T11:41:17.757Z,962.58
2018-05-08T11:42:17.745Z,962.63
2018-05-08T11:43:17.684Z,962.61
2018-05-08T11:44:17.689Z,962.59
2018-05-08T11:45:17.607Z,962.61
2018-05-08T11:46:17.566Z,962.64
2018-05-08T11:47:17.531Z,962.54
2018-05-08T11:48:17.492Z,962.52
2018-05-08T11:49:17.495Z,962.51
2018-05-08T11:50:17.417Z,962.53
2018-05-08T11:51:17.378Z,962.50
2018-05-08T11:52:17.377Z,962.57
2018-05-08T11:53:17.334Z,962.51
2018-05-08T11:54:17.269Z,962.49
2018-05-08T11:55:17.232Z,962.51
2018-05-08T11:56:17.232Z,962.50
2018-05-08T11:57:17.227Z,962.49
2018-05-08T11:58:17.119Z,962.45
2018-05-08T11:59:17.081Z,962.48
2018-05-08T12:00:17.046Z,962.47
2018-05-08T12:01:17.011Z,962.48
2018-05-08T12:02:17.017Z,962.44
2018-05-08T12:03:16.937Z,962.43
2018-05-08T12:04:16.896Z,962.44
2018-05-08T12:05:16.856Z,962.45
2018-05-08T12:06:16.858Z,962.43
2018-05-08T12:07:16.820Z,962.37
2018-05-08T12:08:16.749Z,962.30
2018-05-08T12:09:16.757Z,962.34
2018-05-08T12:10:16.676Z,962.24
2018-05-08T12:11:16.635Z,962.28
2018-05-08T12:12:16.641Z,962.25
2018-05-08T12:13:16.565Z,962.32
2018-05-08T12:14:16.528Z,962.34
2018-05-08T12:15:16.494Z,962.25
2018-05-08T12:16:16.467Z,962.32
2018-05-08T12:17:16.456Z,962.33
2018-05-08T12:18:16.380Z,962.34
2018-05-08T12:19:16.343Z,962.33
2018-05-08T12:20:16.303Z,962.23
2018-05-08T12:21:16.268Z,962.28
2018-05-08T12:22:16.255Z,962.17
2018-05-08T12:23:16.226Z,962.23
2018-05-08T12:24:16.168Z,962.25
2018-05-08T12:25:16.122Z,962.25
2018-05-08T12:26:16.083Z,962.22
2018-05-08T12:27:16.048Z,962.28
2018-05-08T12:28:16.049Z,962.25
2018-05-08T12:29:15.979Z,962.19